Terminal Aerodrome Forecast
Issued by NWS

Home | Current Version | Previous Version | Text Only | Print | Product List | Glossary On
Versions: 1 2 3 4 5 6 7 8 9 10 11 12 13 14 15 16
748
FTUS46 KSEW 212335
TAFPAE
TAF
KPAE 212335Z 2200/2224 VRB06KT 4SM -RA BR BKN004 BKN020 OVC027
     FM220100 17020G30KT 5SM -RA BR OVC015
     FM221200 22014G22KT P6SM -SHRA OVC015
     FM222100 19015G25KT P6SM VCSH SCT030 BKN060=

USA.gov is the U.S. government's official web portal to all federal, state and local government web resources and services.